createdAt,value
2018-12-03T00:00:34.565Z,994.87
2018-12-03T00:01:34.586Z,994.85
2018-12-03T00:02:34.603Z,994.82
2018-12-03T00:03:34.625Z,994.87
2018-12-03T00:04:34.639Z,994.82
2018-12-03T00:06:34.675Z,994.84
2018-12-03T00:07:34.694Z,994.85
2018-12-03T00:08:34.711Z,994.82
2018-12-03T00:09:34.731Z,994.8
2018-12-03T00:10:34.749Z,994.82
2018-12-03T00:11:34.767Z,994.82
2018-12-03T00:12:34.784Z,994.8
2018-12-03T00:13:34.802Z,994.82
2018-12-03T00:14:34.822Z,994.84
2018-12-03T00:15:35.890Z,994.8
2018-12-03T00:16:34.858Z,994.85
2018-12-03T00:17:34.875Z,994.86
2018-12-03T00:18:34.895Z,994.78
2018-12-03T00:19:34.914Z,994.82
2018-12-03T00:21:34.950Z,994.79
2018-12-03T00:22:34.972Z,994.79
2018-12-03T00:23:34.988Z,994.81
2018-12-03T00:24:35.006Z,994.87
2018-12-03T00:25:35.024Z,994.82
2018-12-03T00:26:35.040Z,994.82
2018-12-03T00:27:35.074Z,994.85
2018-12-03T00:28:35.077Z,994.87
2018-12-03T00:29:35.095Z,994.86
2018-12-03T00:30:35.115Z,994.85
2018-12-03T00:31:35.136Z,994.86
2018-12-03T00:32:35.151Z,994.83
2018-12-03T00:33:35.169Z,994.86
2018-12-03T00:34:35.188Z,994.82
2018-12-03T00:35:35.206Z,994.85
2018-12-03T00:36:35.224Z,994.83
2018-12-03T00:37:35.242Z,994.78
2018-12-03T00:38:35.263Z,994.77
2018-12-03T00:39:35.280Z,994.78
2018-12-03T00:40:35.297Z,994.77
2018-12-03T00:41:35.317Z,994.78
2018-12-03T00:42:35.337Z,994.82
2018-12-03T00:43:35.354Z,994.81
2018-12-03T00:44:35.371Z,994.84
2018-12-03T00:45:35.388Z,994.83
2018-12-03T00:46:35.410Z,994.8
2018-12-03T00:47:35.428Z,994.8
2018-12-03T00:48:35.444Z,994.84
2018-12-03T00:49:35.466Z,994.81
2018-12-03T00:50:35.481Z,994.78
2018-12-03T00:51:35.498Z,994.81
2018-12-03T00:53:35.537Z,994.8
2018-12-03T00:54:35.556Z,994.81
2018-12-03T00:55:35.582Z,994.82
2018-12-03T00:56:35.591Z,994.82
2018-12-03T00:57:35.610Z,994.87
2018-12-03T00:58:35.628Z,994.86
2018-12-03T00:59:35.647Z,994.83
2018-12-03T01:00:35.666Z,994.9
2018-12-03T01:01:35.683Z,994.81
2018-12-03T01:02:35.701Z,994.88
2018-12-03T01:03:35.719Z,994.88
2018-12-03T01:04:35.742Z,994.87
2018-12-03T01:05:35.758Z,994.87
2018-12-03T01:06:35.774Z,994.91
2018-12-03T01:07:35.794Z,994.88
2018-12-03T01:09:35.830Z,994.87
2018-12-03T01:10:35.849Z,994.87
2018-12-03T01:11:35.868Z,994.91
2018-12-03T01:12:35.887Z,994.86
2018-12-03T01:13:35.904Z,994.88
2018-12-03T01:14:35.922Z,994.86
2018-12-03T01:15:35.941Z,994.85
2018-12-03T01:16:35.959Z,994.84
2018-12-03T01:17:35.977Z,994.84
2018-12-03T01:18:35.996Z,994.79
2018-12-03T01:19:36.014Z,994.84
2018-12-03T01:20:36.033Z,994.86
2018-12-03T01:21:36.050Z,994.85
2018-12-03T01:22:36.070Z,994.86
2018-12-03T01:23:36.089Z,994.87
2018-12-03T01:25:36.124Z,994.84
2018-12-03T01:26:36.142Z,994.82
2018-12-03T01:27:36.167Z,994.79
2018-12-03T01:28:36.180Z,994.88
2018-12-03T01:29:36.200Z,994.82
2018-12-03T01:30:36.221Z,994.79
2018-12-03T01:31:36.235Z,994.8
2018-12-03T01:32:36.254Z,994.79
2018-12-03T01:33:36.272Z,994.8
2018-12-03T01:34:36.292Z,994.74
2018-12-03T01:35:36.308Z,994.76
2018-12-03T01:36:36.327Z,994.81
2018-12-03T01:37:36.396Z,994.88
2018-12-03T01:38:36.368Z,994.91
2018-12-03T01:39:36.383Z,994.95
2018-12-03T01:41:36.420Z,994.94
2018-12-03T01:42:36.440Z,994.89
2018-12-03T01:43:36.460Z,994.92
2018-12-03T01:44:36.476Z,994.94
2018-12-03T01:45:36.494Z,994.91
2018-12-03T01:46:36.512Z,995
2018-12-03T01:47:36.532Z,995
2018-12-03T01:48:36.550Z,995.07
2018-12-03T01:49:36.569Z,995.1
2018-12-03T01:50:36.587Z,995.11
2018-12-03T01:51:36.605Z,995.05
2018-12-03T01:52:36.631Z,995.06
2018-12-03T01:53:36.644Z,995.09
2018-12-03T01:54:36.663Z,995.05
2018-12-03T01:56:36.700Z,995.08
2018-12-03T01:57:36.720Z,995.08
2018-12-03T01:58:36.737Z,995.09
2018-12-03T01:59:36.756Z,995.1
2018-12-03T02:00:36.775Z,995.1
2018-12-03T02:01:36.793Z,995.09
2018-12-03T02:02:36.813Z,995.11
2018-12-03T02:03:36.831Z,995.12
2018-12-03T02:04:36.848Z,995.1
2018-12-03T02:05:36.868Z,995.04
2018-12-03T02:06:36.886Z,995.08
2018-12-03T02:07:36.905Z,995.07
2018-12-03T02:08:36.924Z,995.01
2018-12-03T02:09:36.944Z,995
2018-12-03T02:10:36.962Z,995.01
2018-12-03T02:11:36.983Z,995
2018-12-03T02:12:36.998Z,994.96
2018-12-03T02:13:37.019Z,994.93
2018-12-03T02:14:37.038Z,994.93
2018-12-03T02:15:37.055Z,994.92
2018-12-03T02:16:37.073Z,994.92
2018-12-03T02:17:37.094Z,994.86
2018-12-03T02:18:37.112Z,994.87
2018-12-03T02:19:37.132Z,994.83
2018-12-03T02:20:37.150Z,994.89
2018-12-03T02:21:37.171Z,994.88
2018-12-03T02:22:37.188Z,994.87
2018-12-03T02:23:37.204Z,994.83
2018-12-03T02:24:37.223Z,994.82
2018-12-03T02:25:37.244Z,994.79
2018-12-03T02:26:37.262Z,994.82
2018-12-03T02:28:37.299Z,994.8
2018-12-03T02:29:37.318Z,994.8
2018-12-03T02:30:37.338Z,994.82
2018-12-03T02:31:37.357Z,994.82
2018-12-03T02:32:37.375Z,994.79
2018-12-03T02:33:37.415Z,994.81
2018-12-03T02:34:37.417Z,994.83
2018-12-03T02:35:37.433Z,994.87
2018-12-03T02:36:37.451Z,994.85
2018-12-03T02:37:37.469Z,994.83
2018-12-03T02:38:37.487Z,994.86
2018-12-03T02:39:37.505Z,994.91
2018-12-03T02:40:37.525Z,994.92
2018-12-03T02:41:37.544Z,994.93
2018-12-03T02:42:37.563Z,994.98
2018-12-03T02:44:37.601Z,994.96
2018-12-03T02:45:37.618Z,995.01
2018-12-03T02:46:37.638Z,994.97
2018-12-03T02:47:37.658Z,995
2018-12-03T02:48:37.675Z,994.96
2018-12-03T02:49:37.695Z,994.98
2018-12-03T02:50:37.714Z,994.98
2018-12-03T02:51:37.733Z,995.07
2018-12-03T02:52:37.851Z,995.07
2018-12-03T02:53:37.769Z,995.09
2018-12-03T02:54:37.788Z,995.07
2018-12-03T02:55:37.806Z,995.06
2018-12-03T02:56:37.826Z,995.06
2018-12-03T02:57:37.844Z,995.04
2018-12-03T02:58:37.870Z,995.03
2018-12-03T03:00:37.901Z,995.04
2018-12-03T03:01:37.966Z,995.08
2018-12-03T03:02:37.939Z,995.09
2018-12-03T03:03:37.957Z,995.07
2018-12-03T03:04:37.982Z,995.09
2018-12-03T03:05:37.996Z,995.07
2018-12-03T03:06:38.016Z,995.05
2018-12-03T03:07:38.036Z,995.04
2018-12-03T03:08:38.053Z,995.07
2018-12-03T03:09:38.072Z,995.04
2018-12-03T03:10:38.091Z,995.07
2018-12-03T03:11:38.110Z,995.04
2018-12-03T03:12:38.128Z,995.04
2018-12-03T03:13:38.147Z,995.02
2018-12-03T03:14:38.166Z,994.96
2018-12-03T03:16:38.205Z,995.03
2018-12-03T03:17:38.224Z,995.06
2018-12-03T03:18:38.242Z,995.1
2018-12-03T03:19:38.262Z,995.05
2018-12-03T03:20:38.282Z,995.04
2018-12-03T03:21:38.298Z,995.02
2018-12-03T03:22:38.318Z,995.06
2018-12-03T03:23:38.337Z,995.05
2018-12-03T03:24:38.356Z,995.02
2018-12-03T03:25:38.374Z,995.03
2018-12-03T03:26:38.394Z,995.03
2018-12-03T03:27:38.413Z,994.96
2018-12-03T03:28:38.432Z,995
2018-12-03T03:29:38.452Z,995
2018-12-03T03:31:38.492Z,994.95
2018-12-03T03:32:38.532Z,994.99
2018-12-03T03:33:38.528Z,994.99
2018-12-03T03:34:38.547Z,994.98
2018-12-03T03:35:38.566Z,995.05
2018-12-03T03:36:38.586Z,995.02
2018-12-03T03:37:38.605Z,995
2018-12-03T03:38:38.623Z,995.03
2018-12-03T03:39:38.650Z,995.01
2018-12-03T03:40:38.663Z,995.01
2018-12-03T03:41:38.682Z,995.01
2018-12-03T03:42:38.699Z,995.01
2018-12-03T03:43:38.719Z,994.99
2018-12-03T03:44:38.738Z,994.98
2018-12-03T03:45:38.762Z,994.98
2018-12-03T03:46:38.776Z,994.99
2018-12-03T03:47:38.796Z,994.96
2018-12-03T03:48:38.814Z,995.01
2018-12-03T03:49:38.834Z,994.99
2018-12-03T03:50:38.853Z,995.03
2018-12-03T03:51:38.871Z,994.99
2018-12-03T03:52:38.991Z,995.05
2018-12-03T03:53:38.911Z,994.98
2018-12-03T03:54:38.928Z,995
2018-12-03T03:55:38.947Z,995.03
2018-12-03T03:56:38.968Z,994.99
2018-12-03T03:57:39.036Z,994.99
2018-12-03T03:58:39.005Z,994.99
2018-12-03T03:59:39.025Z,994.98
2018-12-03T04:00:39.044Z,994.98
2018-12-03T04:01:39.063Z,994.97
2018-12-03T04:03:39.101Z,994.95
2018-12-03T04:04:39.123Z,994.95
2018-12-03T04:05:39.141Z,994.95
2018-12-03T04:06:39.158Z,994.97
2018-12-03T04:07:39.179Z,994.94
2018-12-03T04:08:39.200Z,994.95
2018-12-03T04:09:39.215Z,994.92
2018-12-03T04:10:39.236Z,994.93
2018-12-03T04:11:39.254Z,994.9
2018-12-03T04:12:39.277Z,994.95
2018-12-03T04:13:39.291Z,994.93
2018-12-03T04:14:39.311Z,994.97
2018-12-03T04:15:39.331Z,994.94
2018-12-03T04:16:39.351Z,995.02
2018-12-03T04:17:39.369Z,994.98
2018-12-03T04:19:39.407Z,994.98
2018-12-03T04:20:39.527Z,994.99
2018-12-03T04:21:39.446Z,995.01
2018-12-03T04:22:39.464Z,995
2018-12-03T04:23:39.483Z,994.99
2018-12-03T04:24:39.503Z,994.99
2018-12-03T04:25:39.523Z,994.99
2018-12-03T04:26:39.543Z,995
2018-12-03T04:27:39.559Z,994.95
2018-12-03T04:28:39.580Z,994.97
2018-12-03T04:29:39.599Z,994.97
2018-12-03T04:30:39.619Z,994.94
2018-12-03T04:31:39.639Z,994.92
2018-12-03T04:32:39.657Z,994.88
2018-12-03T04:33:39.679Z,994.91
2018-12-03T04:35:39.714Z,994.86
2018-12-03T04:36:39.734Z,994.85
2018-12-03T04:37:39.759Z,994.81
2018-12-03T04:38:39.771Z,994.79
2018-12-03T04:39:39.790Z,994.81
2018-12-03T04:40:39.809Z,994.77
2018-12-03T04:41:39.829Z,994.8
2018-12-03T04:42:39.847Z,994.75
2018-12-03T04:43:39.868Z,994.75
2018-12-03T04:44:39.888Z,994.77
2018-12-03T04:45:39.907Z,994.73
2018-12-03T04:46:39.926Z,994.78
2018-12-03T04:47:39.944Z,994.77
2018-12-03T04:48:39.963Z,994.75
2018-12-03T04:49:39.983Z,994.79
2018-12-03T04:51:40.024Z,994.79
2018-12-03T04:52:40.042Z,994.8
2018-12-03T04:53:40.059Z,994.78
2018-12-03T04:54:40.078Z,994.8
2018-12-03T04:55:40.097Z,994.76
2018-12-03T04:56:40.116Z,994.78
2018-12-03T04:57:40.137Z,994.75
2018-12-03T04:58:40.156Z,994.79
2018-12-03T04:59:40.174Z,994.76
2018-12-03T05:00:40.194Z,994.8
2018-12-03T05:01:40.215Z,994.77
2018-12-03T05:02:40.232Z,994.81
2018-12-03T05:03:40.251Z,994.75
2018-12-03T05:04:40.272Z,994.75
2018-12-03T05:06:40.312Z,994.78
2018-12-03T05:07:40.330Z,994.74
2018-12-03T05:08:40.349Z,994.76
2018-12-03T05:09:40.367Z,994.7
2018-12-03T05:10:40.386Z,994.71
2018-12-03T05:11:40.406Z,994.72
2018-12-03T05:12:40.424Z,994.67
2018-12-03T05:13:40.448Z,994.69
2018-12-03T05:14:40.462Z,994.69
2018-12-03T05:15:40.481Z,994.71
2018-12-03T05:16:40.502Z,994.75
2018-12-03T05:17:40.522Z,994.77
2018-12-03T05:18:40.539Z,994.73
2018-12-03T05:19:40.560Z,994.77
2018-12-03T05:20:40.579Z,994.75
2018-12-03T05:21:40.598Z,994.77
2018-12-03T05:22:40.623Z,994.72
2018-12-03T05:23:40.635Z,994.71
2018-12-03T05:24:40.655Z,994.71
2018-12-03T05:25:40.673Z,994.65
2018-12-03T05:26:40.693Z,994.69
2018-12-03T05:27:40.711Z,994.71
2018-12-03T05:28:40.732Z,994.68
2018-12-03T05:29:40.749Z,994.65
2018-12-03T05:30:40.769Z,994.65
2018-12-03T05:31:40.788Z,994.63
2018-12-03T05:32:40.808Z,994.6
2018-12-03T05:33:40.826Z,994.59
2018-12-03T05:34:40.847Z,994.6
2018-12-03T05:35:40.865Z,994.59
2018-12-03T05:36:40.883Z,994.56
2018-12-03T05:38:40.923Z,994.56
2018-12-03T05:39:40.943Z,994.56
2018-12-03T05:40:40.961Z,994.59
2018-12-03T05:41:40.980Z,994.57
2018-12-03T05:42:41.001Z,994.6
2018-12-03T05:43:41.020Z,994.57
2018-12-03T05:44:41.037Z,994.57
2018-12-03T05:45:41.056Z,994.55
2018-12-03T05:46:41.076Z,994.53
2018-12-03T05:47:41.094Z,994.54
2018-12-03T05:48:41.114Z,994.54
2018-12-03T05:49:41.135Z,994.54
2018-12-03T05:50:41.157Z,994.54
2018-12-03T05:51:41.172Z,994.58
2018-12-03T05:52:41.193Z,994.52
2018-12-03T05:54:41.232Z,994.55
2018-12-03T05:55:41.250Z,994.57
2018-12-03T05:56:41.269Z,994.61
2018-12-03T05:57:41.288Z,994.62
2018-12-03T05:58:41.307Z,994.65
2018-12-03T05:59:41.325Z,994.64
2018-12-03T06:00:41.346Z,994.64
2018-12-03T06:01:41.363Z,994.61
2018-12-03T06:02:41.395Z,994.66
2018-12-03T06:03:41.403Z,994.63
2018-12-03T06:04:41.422Z,994.63
2018-12-03T06:05:41.442Z,994.63
2018-12-03T06:06:41.461Z,994.65
2018-12-03T06:07:41.480Z,994.64
2018-12-03T06:08:41.499Z,994.65
2018-12-03T06:10:41.538Z,994.59
2018-12-03T06:11:41.559Z,994.62
2018-12-03T06:12:41.581Z,994.59
2018-12-03T06:13:41.594Z,994.64
2018-12-03T06:14:41.614Z,994.58
2018-12-03T06:15:41.634Z,994.58
2018-12-03T06:16:41.653Z,994.59
2018-12-03T06:17:41.672Z,994.56
2018-12-03T06:18:41.691Z,994.52
2018-12-03T06:19:41.714Z,994.53
2018-12-03T06:20:41.730Z,994.57
2018-12-03T06:21:41.748Z,994.55
2018-12-03T06:22:41.768Z,994.51
2018-12-03T06:23:41.787Z,994.5
2018-12-03T06:24:41.808Z,994.53
2018-12-03T06:26:41.849Z,994.49
2018-12-03T06:27:41.864Z,994.54
2018-12-03T06:28:41.884Z,994.56
2018-12-03T06:29:41.902Z,994.59
2018-12-03T06:30:41.923Z,994.57
2018-12-03T06:31:41.941Z,994.61
2018-12-03T06:32:41.962Z,994.59
2018-12-03T06:33:41.981Z,994.6
2018-12-03T06:34:42.000Z,994.63
2018-12-03T06:35:42.017Z,994.59
2018-12-03T06:36:42.038Z,994.6
2018-12-03T06:37:42.060Z,994.55
2018-12-03T06:38:42.076Z,994.53
2018-12-03T06:39:42.095Z,994.55
2018-12-03T06:41:42.135Z,994.55
2018-12-03T06:42:42.154Z,994.55
2018-12-03T06:43:42.172Z,994.56
2018-12-03T06:44:42.192Z,994.54
2018-12-03T06:45:42.211Z,994.5
2018-12-03T06:46:42.229Z,994.5
2018-12-03T06:47:42.266Z,994.48
2018-12-03T06:48:42.269Z,994.5
2018-12-03T06:49:42.288Z,994.49
2018-12-03T06:50:42.307Z,994.45
2018-12-03T06:51:42.328Z,994.49
2018-12-03T06:52:42.346Z,994.44
2018-12-03T06:53:42.365Z,994.46
2018-12-03T06:54:42.642Z,994.49
2018-12-03T06:55:42.406Z,994.45
2018-12-03T06:56:42.423Z,994.43
2018-12-03T06:57:42.443Z,994.43
2018-12-03T06:58:42.462Z,994.43
2018-12-03T06:59:42.482Z,994.38
2018-12-03T07:00:42.499Z,994.4
2018-12-03T07:01:42.521Z,994.4
2018-12-03T07:02:42.539Z,994.41
2018-12-03T07:03:42.558Z,994.39
2018-12-03T07:04:42.576Z,994.42
2018-12-03T07:05:42.597Z,994.44
2018-12-03T07:06:42.616Z,994.4
2018-12-03T07:07:42.635Z,994.4
2018-12-03T07:08:42.654Z,994.43
2018-12-03T07:09:42.674Z,994.48
2018-12-03T07:10:42.692Z,994.48
2018-12-03T07:11:42.713Z,994.51
2018-12-03T07:13:42.750Z,994.53
2018-12-03T07:14:42.771Z,994.56
2018-12-03T07:15:42.789Z,994.52
2018-12-03T07:16:42.810Z,994.56
2018-12-03T07:17:42.828Z,994.54
2018-12-03T07:18:42.848Z,994.56
2018-12-03T07:19:42.868Z,994.54
2018-12-03T07:20:42.884Z,994.58
2018-12-03T07:21:42.904Z,994.53
2018-12-03T07:22:42.922Z,994.53
2018-12-03T07:23:42.943Z,994.56
2018-12-03T07:24:42.963Z,994.53
2018-12-03T07:25:42.983Z,994.51
2018-12-03T07:26:43.008Z,994.55
2018-12-03T07:27:43.019Z,994.54
2018-12-03T07:29:43.059Z,994.54
2018-12-03T07:30:43.077Z,994.6
2018-12-03T07:31:43.101Z,994.65
2018-12-03T07:32:43.117Z,994.61
2018-12-03T07:33:43.135Z,994.62
2018-12-03T07:34:43.161Z,994.66
2018-12-03T07:35:43.173Z,994.68
2018-12-03T07:36:43.193Z,994.69
2018-12-03T07:37:43.212Z,994.7
2018-12-03T07:38:43.232Z,994.67
2018-12-03T07:39:43.251Z,994.72
2018-12-03T07:40:43.270Z,994.74
2018-12-03T07:41:43.293Z,994.74
2018-12-03T07:42:43.312Z,994.82
2018-12-03T07:43:43.329Z,994.79
2018-12-03T07:45:43.367Z,994.72
2018-12-03T07:46:43.388Z,994.66
2018-12-03T07:47:43.405Z,994.7
2018-12-03T07:48:43.426Z,994.67
2018-12-03T07:49:43.443Z,994.74
2018-12-03T07:50:43.463Z,994.71
2018-12-03T07:51:43.483Z,994.74
2018-12-03T07:52:43.502Z,994.73
2018-12-03T07:53:43.521Z,994.74
2018-12-03T07:54:43.542Z,994.73
2018-12-03T07:55:43.559Z,994.77
2018-12-03T07:56:43.578Z,994.72
2018-12-03T07:57:43.599Z,994.72
2018-12-03T07:58:43.620Z,994.78
2018-12-03T07:59:43.637Z,994.77
2018-12-03T08:01:43.682Z,994.78
2018-12-03T08:02:43.695Z,994.79
2018-12-03T08:03:43.715Z,994.78
2018-12-03T08:04:43.737Z,994.73
2018-12-03T08:05:43.753Z,994.78
2018-12-03T08:06:43.772Z,994.78
2018-12-03T08:07:43.791Z,994.76
2018-12-03T08:08:43.812Z,994.77
2018-12-03T08:09:43.831Z,994.8
2018-12-03T08:10:43.851Z,994.79
2018-12-03T08:11:43.870Z,994.75
2018-12-03T08:12:43.887Z,994.78
2018-12-03T08:13:43.908Z,994.77
2018-12-03T08:14:43.928Z,994.73
2018-12-03T08:16:43.967Z,994.72
2018-12-03T08:17:43.985Z,994.7
2018-12-03T08:18:44.005Z,994.69
2018-12-03T08:19:44.025Z,994.77
2018-12-03T08:20:44.049Z,994.73
2018-12-03T08:21:44.064Z,994.71
2018-12-03T08:22:44.082Z,994.77
2018-12-03T08:23:44.102Z,994.76
2018-12-03T08:24:44.122Z,994.75
2018-12-03T08:25:44.140Z,994.74
2018-12-03T08:26:44.161Z,994.67
2018-12-03T08:27:44.180Z,994.64
2018-12-03T08:28:44.198Z,994.6
2018-12-03T08:29:44.219Z,994.62
2018-12-03T08:30:44.237Z,994.57
2018-12-03T08:31:44.259Z,994.61
2018-12-03T08:32:44.276Z,994.6
2018-12-03T08:33:44.296Z,994.58
2018-12-03T08:34:44.317Z,994.67
2018-12-03T08:35:44.351Z,994.7
2018-12-03T08:36:44.355Z,994.7
2018-12-03T08:37:44.374Z,994.72
2018-12-03T08:38:44.395Z,994.73
2018-12-03T08:39:44.412Z,994.7
2018-12-03T08:40:44.436Z,994.66
2018-12-03T08:41:44.452Z,994.67
2018-12-03T08:42:44.470Z,994.69
2018-12-03T08:43:44.489Z,994.69
2018-12-03T08:44:44.511Z,994.73
2018-12-03T08:45:44.558Z,994.72
2018-12-03T08:46:44.547Z,994.67
2018-12-03T08:48:44.588Z,994.7
2018-12-03T08:49:44.607Z,994.71
2018-12-03T08:50:44.624Z,994.74
2018-12-03T08:51:44.644Z,994.78
2018-12-03T08:52:44.664Z,994.76
2018-12-03T08:53:44.684Z,994.8
2018-12-03T08:54:44.702Z,994.82
2018-12-03T08:55:44.725Z,994.82
2018-12-03T08:56:44.743Z,994.76
2018-12-03T08:57:44.762Z,994.78
2018-12-03T08:58:44.781Z,994.76
2018-12-03T08:59:44.800Z,994.77
2018-12-03T09:00:44.821Z,994.75
2018-12-03T09:01:44.841Z,994.73
2018-12-03T09:02:44.860Z,994.71
2018-12-03T09:04:44.900Z,994.78
2018-12-03T09:05:44.919Z,994.7
2018-12-03T09:06:44.938Z,994.74
2018-12-03T09:07:44.958Z,994.74
2018-12-03T09:08:44.977Z,994.76
2018-12-03T09:09:45.050Z,994.69
2018-12-03T09:10:45.019Z,994.69
2018-12-03T09:11:45.134Z,994.73
2018-12-03T09:12:45.055Z,994.7
2018-12-03T09:13:45.075Z,994.68
2018-12-03T09:14:45.096Z,994.68
2018-12-03T09:15:45.117Z,994.63
2018-12-03T09:16:45.135Z,994.67
2018-12-03T09:17:45.154Z,994.67
2018-12-03T09:18:45.174Z,994.65
2018-12-03T09:20:45.214Z,994.69
2018-12-03T09:21:45.234Z,994.73
2018-12-03T09:22:45.255Z,994.68
2018-12-03T09:23:45.273Z,994.65
2018-12-03T09:24:45.293Z,994.71
2018-12-03T09:25:45.313Z,994.7
2018-12-03T09:26:45.334Z,994.7
2018-12-03T09:27:45.354Z,994.7
2018-12-03T09:28:45.373Z,994.6
2018-12-03T09:29:45.393Z,994.63
2018-12-03T09:30:45.413Z,994.65
2018-12-03T09:31:45.432Z,994.61
2018-12-03T09:32:45.453Z,994.59
2018-12-03T09:33:45.475Z,994.64
2018-12-03T09:34:45.494Z,994.61
2018-12-03T09:36:45.534Z,994.63
2018-12-03T09:37:45.553Z,994.66
2018-12-03T09:38:45.573Z,994.69
2018-12-03T09:39:45.593Z,994.71
2018-12-03T09:40:45.614Z,994.76
2018-12-03T09:41:45.634Z,994.77
2018-12-03T09:42:45.703Z,994.73
2018-12-03T09:43:45.675Z,994.7
2018-12-03T09:44:45.694Z,994.72
2018-12-03T09:45:45.714Z,994.66
2018-12-03T09:46:45.734Z,994.67
2018-12-03T09:47:45.754Z,994.69
2018-12-03T09:48:45.775Z,994.73
2018-12-03T09:49:45.796Z,994.69
2018-12-03T09:51:45.836Z,994.57
2018-12-03T09:52:45.855Z,994.6
2018-12-03T09:53:45.875Z,994.57
2018-12-03T09:54:45.895Z,994.6
2018-12-03T09:55:45.915Z,994.6
2018-12-03T09:56:45.937Z,994.6
2018-12-03T09:57:45.955Z,994.64
2018-12-03T09:58:45.975Z,994.62
2018-12-03T09:59:45.996Z,994.63
2018-12-03T10:00:46.016Z,994.64
2018-12-03T10:01:46.041Z,994.64
2018-12-03T10:02:46.062Z,994.59
2018-12-03T10:03:46.079Z,994.6
2018-12-03T10:04:46.096Z,994.61
2018-12-03T10:05:46.116Z,994.63
2018-12-03T10:06:46.137Z,994.62
2018-12-03T10:07:46.155Z,994.61
2018-12-03T10:08:46.176Z,994.6
2018-12-03T10:09:46.197Z,994.61
2018-12-03T10:10:46.216Z,994.6
2018-12-03T10:11:46.236Z,994.58
2018-12-03T10:12:46.255Z,994.52
2018-12-03T10:13:46.279Z,994.56
2018-12-03T10:14:46.296Z,994.61
2018-12-03T10:15:46.315Z,994.61
2018-12-03T10:16:46.335Z,994.56
2018-12-03T10:17:46.355Z,994.62
2018-12-03T10:18:46.374Z,994.6
2018-12-03T10:19:46.399Z,994.54
2018-12-03T10:20:46.415Z,994.59
2018-12-03T10:21:46.446Z,994.56
2018-12-03T10:23:46.479Z,994.59
2018-12-03T10:24:46.500Z,994.6
2018-12-03T10:25:46.515Z,994.61
2018-12-03T10:26:46.536Z,994.55
2018-12-03T10:27:46.555Z,994.57
2018-12-03T10:28:46.577Z,994.55
2018-12-03T10:29:46.595Z,994.51
2018-12-03T10:30:46.616Z,994.48
2018-12-03T10:31:46.638Z,994.5
2018-12-03T10:32:46.655Z,994.55
2018-12-03T10:33:46.676Z,994.46
2018-12-03T10:34:46.697Z,994.49
2018-12-03T10:35:46.724Z,994.56
2018-12-03T10:36:46.734Z,994.45
2018-12-03T10:37:46.756Z,994.47
2018-12-03T10:39:46.798Z,994.48
2018-12-03T10:40:46.815Z,994.45
2018-12-03T10:41:46.836Z,994.48
2018-12-03T10:42:46.856Z,994.5
2018-12-03T10:43:46.876Z,994.43
2018-12-03T10:44:46.894Z,994.41
2018-12-03T10:45:46.916Z,994.42
2018-12-03T10:46:46.936Z,994.41
2018-12-03T10:47:46.955Z,994.4
2018-12-03T10:48:46.977Z,994.44
2018-12-03T10:49:46.996Z,994.39
2018-12-03T10:50:47.018Z,994.42
2018-12-03T10:51:47.036Z,994.43
2018-12-03T10:52:47.056Z,994.43
2018-12-03T10:53:47.078Z,994.44
2018-12-03T10:55:47.118Z,994.46
2018-12-03T10:56:47.139Z,994.5
2018-12-03T10:57:47.160Z,994.47
2018-12-03T10:58:47.185Z,994.44
2018-12-03T10:59:47.233Z,994.45
2018-12-03T11:00:47.219Z,994.45
2018-12-03T11:01:47.240Z,994.45
2018-12-03T11:02:47.260Z,994.45
2018-12-03T11:03:47.279Z,994.43
2018-12-03T11:04:47.301Z,994.45
2018-12-03T11:05:47.321Z,994.5
2018-12-03T11:06:47.340Z,994.44
2018-12-03T11:07:47.362Z,994.47
2018-12-03T11:08:47.382Z,994.48
2018-12-03T11:09:47.403Z,994.5
2018-12-03T11:11:47.443Z,994.5
2018-12-03T11:12:47.464Z,994.49
2018-12-03T11:13:47.491Z,994.55
2018-12-03T11:14:47.504Z,994.52
2018-12-03T11:15:47.527Z,994.5
2018-12-03T11:16:47.553Z,994.51
2018-12-03T11:17:47.566Z,994.49
2018-12-03T11:18:47.587Z,994.47
2018-12-03T11:19:47.608Z,994.5
2018-12-03T11:20:47.628Z,994.56
2018-12-03T11:21:47.648Z,994.52
2018-12-03T11:22:47.668Z,994.46
2018-12-03T11:23:47.690Z,994.45
2018-12-03T11:24:47.709Z,994.44
2018-12-03T11:26:47.752Z,994.48
2018-12-03T11:27:47.773Z,994.45
2018-12-03T11:28:47.794Z,994.4
2018-12-03T11:29:47.815Z,994.43
2018-12-03T11:30:47.835Z,994.41
2018-12-03T11:31:47.854Z,994.46
2018-12-03T11:32:47.876Z,994.43
2018-12-03T11:33:47.896Z,994.41
2018-12-03T11:34:47.917Z,994.33
2018-12-03T11:35:47.937Z,994.36
2018-12-03T11:36:47.960Z,994.35
2018-12-03T11:37:47.983Z,994.37
2018-12-03T11:38:48.000Z,994.38
2018-12-03T11:39:48.021Z,994.38
2018-12-03T11:40:48.043Z,994.38
2018-12-03T11:41:48.065Z,994.33
2018-12-03T11:42:48.084Z,994.33
2018-12-03T11:43:48.104Z,994.31
2018-12-03T11:44:48.126Z,994.31
2018-12-03T11:45:48.147Z,994.27
2018-12-03T11:46:48.169Z,994.3
2018-12-03T11:47:48.190Z,994.31
2018-12-03T11:48:48.210Z,994.31
2018-12-03T11:49:48.230Z,994.31
2018-12-03T11:50:48.251Z,994.26
2018-12-03T11:51:48.274Z,994.29
2018-12-03T11:52:48.294Z,994.21
2018-12-03T11:53:48.316Z,994.23
2018-12-03T11:54:48.337Z,994.2
2018-12-03T11:55:48.359Z,994.22
2018-12-03T11:56:48.378Z,994.2
2018-12-03T11:58:48.421Z,994.23
2018-12-03T11:59:48.442Z,994.2
2018-12-03T12:00:48.462Z,994.24
2018-12-03T12:01:48.482Z,994.26
2018-12-03T12:02:48.503Z,994.23
2018-12-03T12:03:48.525Z,994.19
2018-12-03T12:04:48.545Z,994.19
2018-12-03T12:05:48.565Z,994.19
2018-12-03T12:06:48.590Z,994.16
2018-12-03T12:07:48.606Z,994.22
2018-12-03T12:08:48.632Z,994.25
2018-12-03T12:09:48.651Z,994.25
2018-12-03T12:10:48.671Z,994.23
2018-12-03T12:11:48.691Z,994.25
2018-12-03T12:12:48.712Z,994.27
2018-12-03T12:14:48.755Z,994.32
2018-12-03T12:15:48.776Z,994.34
2018-12-03T12:16:48.797Z,994.32
2018-12-03T12:17:48.817Z,994.32
2018-12-03T12:18:48.838Z,994.29
2018-12-03T12:19:48.860Z,994.26
2018-12-03T12:20:48.880Z,994.27
2018-12-03T12:21:48.901Z,994.28
2018-12-03T12:22:48.921Z,994.25
2018-12-03T12:23:48.942Z,994.33
2018-12-03T12:24:48.965Z,994.32
2018-12-03T12:25:48.987Z,994.35
2018-12-03T12:26:49.007Z,994.32
2018-12-03T12:27:49.028Z,994.39
2018-12-03T12:28:49.048Z,994.36
2018-12-03T12:30:49.091Z,994.37
2018-12-03T12:31:49.111Z,994.39
2018-12-03T12:32:49.135Z,994.39
2018-12-03T12:33:49.153Z,994.32
2018-12-03T12:34:49.175Z,994.33
2018-12-03T12:35:49.195Z,994.38
2018-12-03T12:36:49.217Z,994.46
2018-12-03T12:37:49.237Z,994.42
2018-12-03T12:38:49.259Z,994.42
2018-12-03T12:39:49.280Z,994.44
2018-12-03T12:40:49.300Z,994.46
2018-12-03T12:41:49.321Z,994.44
2018-12-03T12:42:49.342Z,994.4
2018-12-03T12:43:49.365Z,994.34
2018-12-03T12:44:49.385Z,994.36
2018-12-03T12:46:49.429Z,994.33
2018-12-03T12:47:49.449Z,994.31
2018-12-03T12:48:49.468Z,994.34
2018-12-03T12:49:49.489Z,994.31
2018-12-03T12:50:49.511Z,994.33
2018-12-03T12:51:51.658Z,994.36
2018-12-03T12:52:49.553Z,994.34
2018-12-03T12:53:49.573Z,994.37
2018-12-03T12:54:49.594Z,994.35
2018-12-03T12:55:49.614Z,994.38
2018-12-03T12:56:49.649Z,994.33
2018-12-03T12:57:49.659Z,994.35
2018-12-03T12:58:49.679Z,994.36
2018-12-03T12:59:49.699Z,994.29
2018-12-03T13:01:49.743Z,994.39
2018-12-03T13:02:49.762Z,994.41
2018-12-03T13:03:49.783Z,994.42
2018-12-03T13:04:49.804Z,994.38
2018-12-03T13:05:49.826Z,994.38
2018-12-03T13:06:49.847Z,994.39
2018-12-03T13:07:49.868Z,994.4
2018-12-03T13:08:49.893Z,994.45
2018-12-03T13:09:49.908Z,994.46
2018-12-03T13:10:49.932Z,994.42
2018-12-03T13:11:49.951Z,994.36
2018-12-03T13:12:49.972Z,994.47
2018-12-03T13:13:49.992Z,994.46
2018-12-03T13:14:50.013Z,994.41